createdAt,value
2022-09-11T04:30:39.540Z,100935.94
2022-09-11T04:36:05.107Z,100940.38
2022-09-11T04:41:27.617Z,100943.16
2022-09-11T04:46:49.745Z,100941.69
2022-09-11T04:52:12.154Z,100935.00
2022-09-11T04:57:34.176Z,100941.38
2022-09-11T05:02:56.012Z,100948.66
2022-09-11T05:08:18.981Z,100960.00
2022-09-11T05:13:42.803Z,100968.75
2022-09-11T05:19:04.476Z,100977.66
2022-09-11T05:24:27.214Z,100971.69
2022-09-11T05:29:50.615Z,100973.03
2022-09-11T05:35:11.868Z,100982.69
2022-09-11T05:40:32.985Z,100985.34
2022-09-11T05:45:56.432Z,101002.59
2022-09-11T05:51:21.650Z,101005.28
2022-09-11T05:56:43.830Z,101016.25
2022-09-11T06:02:11.619Z,101019.66
2022-09-11T06:07:42.151Z,101029.13
2022-09-11T06:13:03.575Z,101030.31
2022-09-11T06:18:27.005Z,101043.75
2022-09-11T06:23:53.327Z,101044.97
2022-09-11T06:29:16.104Z,101051.41
2022-09-11T06:34:41.286Z,101051.78
2022-09-11T06:40:05.507Z,101051.66
2022-09-11T06:45:26.685Z,101053.78
2022-09-11T06:50:47.875Z,101061.63
2022-09-11T06:56:12.899Z,101062.06
2022-09-11T07:01:35.491Z,101064.44
2022-09-11T07:06:57.190Z,101067.00
2022-09-11T07:12:23.879Z,101067.03
2022-09-11T07:17:45.065Z,101068.34
2022-09-11T07:23:08.803Z,101070.34
2022-09-11T07:28:31.050Z,101066.50
2022-09-11T07:33:53.235Z,101069.88
2022-09-11T07:39:16.392Z,101077.88
2022-09-11T07:44:57.336Z,101084.53
2022-09-11T07:50:24.244Z,101083.69
2022-09-11T07:55:45.845Z,101093.38
2022-09-11T08:01:15.798Z,101095.19
2022-09-11T08:06:38.361Z,101098.34
2022-09-11T08:12:05.278Z,101097.66
2022-09-11T08:17:29.562Z,101092.16
2022-09-11T08:22:50.438Z,101101.16
2022-09-11T08:28:13.231Z,101112.50
2022-09-11T08:33:34.279Z,101119.50
2022-09-11T08:38:58.552Z,101127.22
2022-09-11T08:44:21.218Z,101125.38
2022-09-11T08:49:47.988Z,101130.88
2022-09-11T08:55:13.555Z,101137.47
2022-09-11T09:00:48.171Z,101138.81
2022-09-11T09:06:58.139Z,101141.03
2022-09-11T09:12:51.470Z,101133.34
2022-09-11T09:18:34.020Z,101145.72
2022-09-11T09:23:58.855Z,101153.63
2022-09-11T09:29:30.507Z,101153.72
2022-09-11T09:34:57.617Z,101162.03
2022-09-11T09:40:19.155Z,101159.66
2022-09-11T09:46:11.506Z,101164.22
2022-09-11T09:51:32.307Z,101159.78
2022-09-11T09:57:02.342Z,101166.53
2022-09-11T10:02:43.426Z,101163.81
2022-09-11T10:08:06.816Z,101169.19
2022-09-11T10:13:31.538Z,101168.13
2022-09-11T10:18:54.263Z,101172.19
2022-09-11T10:24:18.089Z,101178.22
2022-09-11T10:29:50.395Z,101183.44
2022-09-11T10:35:11.625Z,101176.88
2022-09-11T10:40:32.683Z,101171.25
2022-09-11T10:46:24.904Z,101172.06
2022-09-11T10:52:07.987Z,101184.16
2022-09-11T10:57:42.862Z,101198.25
2022-09-11T11:03:17.097Z,101187.59
2022-09-11T11:08:37.834Z,101201.50
2022-09-11T11:14:31.072Z,101198.78
2022-09-11T11:20:04.725Z,101194.56
2022-09-11T11:25:34.731Z,101188.25
2022-09-11T11:31:22.146Z,101185.81
2022-09-11T11:36:53.987Z,101177.28
2022-09-11T11:42:23.320Z,101173.41
2022-09-11T11:47:47.288Z,101172.72
2022-09-11T11:53:08.452Z,101173.16
2022-09-11T11:58:47.308Z,101183.09
2022-09-11T12:04:19.890Z,101186.41
2022-09-11T12:09:46.984Z,101183.97
2022-09-11T12:15:10.358Z,101191.41
2022-09-11T12:20:43.412Z,101180.63
2022-09-11T12:26:10.501Z,101180.47
2022-09-11T12:31:51.033Z,101184.63
2022-09-11T12:37:27.075Z,101194.19
2022-09-11T12:42:57.669Z,101191.41
2022-09-11T12:48:22.477Z,101193.09
2022-09-11T12:53:47.065Z,101197.31
2022-09-11T12:59:10.991Z,101213.13
2022-09-11T13:04:33.185Z,101223.19
2022-09-11T13:09:57.176Z,101223.44
2022-09-11T13:15:34.542Z,101219.03
2022-09-11T13:21:12.301Z,101220.19
2022-09-11T13:26:33.412Z,101227.97
2022-09-11T13:31:57.576Z,101227.22
2022-09-11T13:37:33.895Z,101227.06
2022-09-11T13:42:56.148Z,101217.13
2022-09-11T13:48:22.860Z,101228.66
2022-09-11T13:53:46.655Z,101214.06
2022-09-11T13:59:49.035Z,101210.41
2022-09-11T14:05:15.380Z,101217.34
2022-09-11T14:10:42.030Z,101208.22
2022-09-11T14:16:07.484Z,101208.16
2022-09-11T14:21:35.656Z,101213.38
2022-09-11T14:26:58.299Z,101210.38
2022-09-11T14:32:40.052Z,101216.47
2022-09-11T14:38:00.876Z,101205.69
2022-09-11T14:43:26.513Z,101203.34
2022-09-11T14:48:47.411Z,101211.25
2022-09-11T14:54:15.327Z,101202.84
2022-09-11T14:59:36.118Z,101204.19
2022-09-11T15:04:58.349Z,101197.72
2022-09-11T15:10:20.293Z,101196.47
2022-09-11T15:15:41.294Z,101197.09
2022-09-11T15:21:02.195Z,101192.81
2022-09-11T15:26:23.076Z,101201.22
2022-09-11T15:31:44.283Z,101202.44
2022-09-11T15:37:05.451Z,101203.16
2022-09-11T15:42:26.520Z,101195.38
2022-09-11T15:47:47.804Z,101200.63
2022-09-11T15:53:09.663Z,101199.81
2022-09-11T15:58:32.551Z,101208.03
2022-09-11T16:03:55.672Z,101219.41
2022-09-11T16:09:22.930Z,101221.16
2022-09-11T16:14:44.147Z,101223.09
2022-09-11T16:20:05.839Z,101220.06
2022-09-11T16:25:27.955Z,101221.50
2022-09-11T16:30:55.069Z,101226.25
2022-09-11T16:36:18.771Z,101228.31
2022-09-11T16:41:40.608Z,101217.00
2022-09-11T16:47:01.730Z,101222.34
2022-09-11T16:52:22.554Z,101213.19
2022-09-11T16:57:44.438Z,101206.72
2022-09-11T17:03:05.328Z,101214.28
2022-09-11T17:08:26.613Z,101216.72
2022-09-11T17:13:48.781Z,101220.94
2022-09-11T17:19:10.514Z,101225.94
2022-09-11T17:24:32.115Z,101224.22
2022-09-11T17:29:53.216Z,101229.03
2022-09-11T17:35:14.788Z,101225.00
2022-09-11T17:40:36.488Z,101231.13
2022-09-11T17:46:08.897Z,101235.78
2022-09-11T17:51:30.104Z,101232.94
2022-09-11T17:56:51.490Z,101232.53
2022-09-11T18:02:14.298Z,101232.25
2022-09-11T18:07:35.283Z,101236.25
2022-09-11T18:12:56.279Z,101232.41
2022-09-11T18:18:17.391Z,101231.19
2022-09-11T18:23:44.626Z,101238.25
2022-09-11T18:29:10.009Z,101234.78
2022-09-11T18:34:31.192Z,101244.75
2022-09-11T18:39:52.046Z,101231.09
2022-09-11T18:45:12.646Z,101245.25
2022-09-11T18:50:35.862Z,101256.50
2022-09-11T18:56:02.205Z,101255.72
2022-09-11T19:01:25.674Z,101267.66
2022-09-11T19:06:46.620Z,101278.94
2022-09-11T19:12:08.079Z,101273.53
2022-09-11T19:17:28.856Z,101268.72
2022-09-11T19:22:49.619Z,101275.50
2022-09-11T19:28:11.897Z,101276.91
2022-09-11T19:33:34.166Z,101277.56
2022-09-11T19:38:56.098Z,101272.84
2022-09-11T19:44:17.502Z,101280.16
2022-09-11T19:49:38.367Z,101287.91
2022-09-11T19:55:00.324Z,101292.59
2022-09-11T20:00:22.529Z,101297.22
2022-09-11T20:05:44.705Z,101304.09
2022-09-11T20:11:07.603Z,101308.66
2022-09-11T20:16:30.560Z,101315.84
2022-09-11T20:21:51.761Z,101306.66
2022-09-11T20:27:12.447Z,101312.19
2022-09-11T20:32:36.611Z,101311.72
2022-09-11T20:37:57.412Z,101307.25
2022-09-11T20:43:18.189Z,101308.75
2022-09-11T20:48:38.988Z,101306.34
2022-09-11T20:54:00.596Z,101310.72
2022-09-11T20:59:21.648Z,101313.78
2022-09-11T21:04:42.319Z,101314.66
2022-09-11T21:10:03.702Z,101316.34
2022-09-11T21:15:24.679Z,101316.25
2022-09-11T21:20:53.731Z,101313.59
2022-09-11T21:26:16.940Z,101307.19
2022-09-11T21:31:38.033Z,101317.22
2022-09-11T21:36:58.609Z,101321.31
2022-09-11T21:42:19.597Z,101309.50
2022-09-11T21:47:40.591Z,101306.28
2022-09-11T21:53:01.373Z,101310.56
2022-09-11T21:58:22.748Z,101314.97
